Time;durP1;ratioP1;P1;durP2;ratioP2;P2;SDS_P1;SDS_P2;PMS_P1;PMS_P2;Temp;Humidity;BMP_temperature;BMP_pressure;BME280_temperature;BME280_humidity;BME280_pressure;Samples;Min_cycle;Max_cycle;Signal;HPM_P1;HPM_P2
2022/01/24 00:00:09;;;;;;;16.38;7.03;;;;;;;-5.62;100.00;60215.66;5096464;28;20204;-75
2022/01/24 00:02:37;;;;;;;14.77;6.93;;;;;;;-4.73;100.00;60309.41;5096292;28;20235;-73
2022/01/24 00:05:06;;;;;;;13.95;6.88;;;;;;;-4.71;100.00;60311.53;5096312;28;20199;-75
2022/01/24 00:07:33;;;;;;;13.25;6.30;;;;;;;-4.71;100.00;60315.97;5097217;28;20231;-74
2022/01/24 00:10:06;;;;;;;14.07;7.18;;;;;;;-5.66;100.00;60218.91;5095620;28;20199;-75
2022/01/24 00:12:41;;;;;;;15.10;7.75;;;;;;;-5.22;100.00;60252.81;5076582;28;20203;-75
2022/01/24 00:15:19;;;;;;;15.50;7.50;;;;;;;-4.72;100.00;60312.94;5093830;28;20211;-76
2022/01/24 00:18:03;;;;;;;14.48;6.65;;;;;;;-4.83;100.00;60296.41;5094084;28;20195;-74
2022/01/24 00:28:59;;;;;;;14.60;6.93;;;;;;;-4.78;100.00;60309.09;5080575;28;20633;-76
2022/01/24 00:31:27;;;;;;;15.88;7.13;;;;;;;-4.79;100.00;60303.09;5093604;28;20264;-74
2022/01/24 00:33:55;;;;;;;12.15;6.00;;;;;;;-4.75;100.00;60306.78;5093442;28;20727;-73
2022/01/24 00:36:25;;;;;;;13.27;6.70;;;;;;;-4.65;100.00;60322.81;5093289;28;20659;-72
2022/01/24 00:38:55;;;;;;;12.55;6.78;;;;;;;-4.68;100.00;60322.13;5093565;28;20199;-74
2022/01/24 00:41:23;;;;;;;19.02;8.02;;;;;;;-4.66;100.00;60319.28;5092273;28;20242;-74
2022/01/24 00:44:05;;;;;;;14.32;7.07;;;;;;;-4.85;100.00;60301.75;5093301;28;20200;-73
2022/01/24 00:46:41;;;;;;;12.88;7.18;;;;;;;-4.68;100.00;60317.16;5093290;28;20732;-74
2022/01/24 00:49:34;;;;;;;13.02;6.82;;;;;;;-4.90;100.00;60290.97;5092891;28;20199;-74
2022/01/24 00:54:52;;;;;;;14.73;6.45;;;;;;;-4.69;100.00;60315.59;5093296;28;20226;-76
2022/01/24 00:57:20;;;;;;;14.00;6.95;;;;;;;-4.78;100.00;60306.63;5093596;28;20653;-75
2022/01/24 00:59:47;;;;;;;13.10;6.85;;;;;;;-5.50;100.00;60228.31;5093213;28;20238;-77
2022/01/24 01:02:15;;;;;;;20.73;7.68;;;;;;;-4.54;100.00;60334.41;5093076;28;20227;-75
2022/01/24 01:04:56;;;;;;;13.15;6.70;;;;;;;-4.55;100.00;60330.88;5092913;28;20204;-75
2022/01/24 01:07:34;;;;;;;17.52;6.95;;;;;;;-4.42;100.00;60341.56;5092768;28;20693;-74
2022/01/24 01:18:16;;;;;;;13.32;6.88;;;;;;;-4.61;100.00;60324.03;5093097;28;20229;-75
2022/01/24 01:23:30;;;;;;;13.48;7.10;;;;;;;-4.56;100.00;60332.28;5090026;28;20200;-76
2022/01/24 01:26:01;;;;;;;16.23;7.07;;;;;;;-4.61;100.00;60327.03;5074127;28;20233;-74
2022/01/24 01:28:30;;;;;;;16.05;7.38;;;;;;;-4.66;100.00;60316.78;5092875;28;20203;-77
2022/01/24 01:31:04;;;;;;;17.20;8.73;;;;;;;-4.91;100.00;60290.47;5092483;28;20199;-74
2022/01/24 01:33:42;;;;;;;25.10;10.18;;;;;;;-4.85;100.00;60296.78;5093054;28;20222;-74
2022/01/24 01:36:15;;;;;;;17.77;9.38;;;;;;;-6.33;100.00;60147.00;5092432;28;20246;-74
2022/01/24 01:53:01;;;;;;;24.77;10.70;;;;;;;-4.92;100.00;60289.38;5092003;28;20203;-77
2022/01/24 01:55:38;;;;;;;21.48;9.45;;;;;;;-4.98;100.00;60288.03;5092355;28;20268;-75
2022/01/24 01:58:07;;;;;;;18.30;8.80;;;;;;;-5.68;100.00;60209.34;5091819;28;20210;-74
2022/01/24 02:00:36;;;;;;;18.77;7.82;;;;;;;-4.97;100.00;60284.13;5074005;28;20199;-73
2022/01/24 02:03:07;;;;;;;15.85;8.05;;;;;;;-6.65;100.00;60110.84;5092984;28;20207;-72
2022/01/24 02:05:44;;;;;;;15.55;7.93;;;;;;;-5.89;100.00;60192.25;5093577;28;20203;-74
2022/01/24 02:08:13;;;;;;;16.38;7.65;;;;;;;-5.57;100.00;60231.38;5092957;28;20287;-75
2022/01/24 02:10:46;;;;;;;15.15;7.72;;;;;;;-4.87;100.00;60297.16;5091950;28;20211;-74
2022/01/24 02:13:16;;;;;;;15.48;7.65;;;;;;;-5.29;100.00;60252.91;5091818;28;20731;-74
2022/01/24 02:15:55;;;;;;;20.90;8.50;;;;;;;-5.13;100.00;60267.28;5092931;28;20199;-74
2022/01/24 02:18:31;;;;;;;17.27;8.90;;;;;;;-5.17;100.00;60263.06;5091954;28;20298;-74
2022/01/24 02:24:01;;;;;;;16.97;8.13;;;;;;;-4.98;100.00;60283.06;5075989;27;1572016;-74
2022/01/24 02:26:29;;;;;;;15.25;7.95;;;;;;;-6.10;100.00;60171.19;5109600;28;20199;-73
2022/01/24 02:29:04;;;;;;;19.23;8.32;;;;;;;-5.01;100.00;60277.44;5109503;28;20195;-74
2022/01/24 02:31:42;;;;;;;19.95;8.80;;;;;;;-5.15;100.00;60265.16;5109831;28;20191;-75
2022/01/24 02:34:30;;;;;;;17.73;8.13;;;;;;;-6.86;100.00;60085.78;5110156;28;20670;-75
2022/01/24 02:37:03;;;;;;;13.95;7.60;;;;;;;-5.24;100.00;60260.66;5110344;28;20224;-74
2022/01/24 02:39:51;;;;;;;17.52;8.45;;;;;;;-5.41;100.00;60242.75;5110103;28;20203;-76
2022/01/24 02:53:31;;;;;;;14.48;8.38;;;;;;;-4.91;100.00;60292.94;5072481;28;20199;-73
2022/01/24 02:56:04;;;;;;;15.98;7.55;;;;;;;-4.85;100.00;60296.25;5089617;28;20287;-73
2022/01/24 02:58:32;;;;;;;15.35;7.78;;;;;;;-6.42;100.00;60135.06;5071049;28;20285;-75
2022/01/24 03:01:06;;;;;;;31.98;11.43;;;;;;;-5.26;100.00;60253.56;5070622;28;20289;-74
2022/01/24 03:03:34;;;;;;;23.83;11.07;;;;;;;-5.76;100.00;60199.00;5088062;28;20247;-77
2022/01/24 03:06:03;;;;;;;30.25;10.85;;;;;;;-5.66;100.00;60211.47;5088653;28;20730;-74
2022/01/24 03:08:30;;;;;;;27.88;10.68;;;;;;;-5.71;100.00;60216.63;5088795;28;20265;-76
2022/01/24 03:11:12;;;;;;;21.15;9.55;;;;;;;-4.68;100.00;60317.16;5070554;28;20206;-73
2022/01/24 03:13:41;;;;;;;26.40;10.63;;;;;;;-4.78;100.00;60304.16;5088504;28;20662;-75
2022/01/24 03:16:09;;;;;;;24.33;8.88;;;;;;;-4.89;100.00;60295.03;5088318;28;20210;-76
2022/01/24 03:18:36;;;;;;;19.48;9.43;;;;;;;-4.67;100.00;60318.22;5070225;28;20671;-74
2022/01/24 03:21:04;;;;;;;15.57;8.48;;;;;;;-5.24;100.00;60253.19;5088142;28;20200;-74
2022/01/24 03:23:33;;;;;;;19.65;9.30;;;;;;;-5.49;100.00;60229.38;5087453;28;20312;-75
2022/01/24 03:26:01;;;;;;;16.20;8.10;;;;;;;-4.23;100.00;60364.06;5088472;28;20288;-74
2022/01/24 03:28:30;;;;;;;17.65;8.80;;;;;;;-4.23;100.00;60364.06;5070182;28;20287;-74
2022/01/24 03:31:00;;;;;;;16.33;8.73;;;;;;;-4.23;100.00;60358.56;5088093;28;20200;-74
2022/01/24 03:33:29;;;;;;;18.17;9.73;;;;;;;-4.93;100.00;60288.34;5085109;28;20261;-73
2022/01/24 03:35:57;;;;;;;20.75;8.77;;;;;;;-4.28;100.00;60356.84;5074744;28;20200;-75
2022/01/24 03:38:52;;;;;;;15.97;8.70;;;;;;;-4.28;100.00;60355.81;5074506;28;20200;-74
2022/01/24 03:41:22;;;;;;;18.67;9.23;;;;;;;-4.43;100.00;60341.03;5056323;28;20446;-75
2022/01/24 03:44:01;;;;;;;18.48;10.02;;;;;;;-4.59;100.00;60329.16;5074445;28;20236;-74
2022/01/24 03:46:35;;;;;;;23.65;11.88;;;;;;;-5.06;100.00;60277.13;5074301;28;20200;-74
2022/01/24 03:49:20;;;;;;;22.95;11.60;;;;;;;-5.19;100.00;60256.00;5074947;28;20200;-74
2022/01/24 03:51:49;;;;;;;30.85;12.90;;;;;;;-4.61;100.00;60322.06;5074386;28;20283;-75
2022/01/24 03:54:17;;;;;;;26.10;11.77;;;;;;;-4.72;100.00;60310.47;5074689;28;20702;-75
2022/01/24 03:56:44;;;;;;;31.70;13.82;;;;;;;-4.78;100.00;60304.16;5073686;28;20685;-74
2022/01/24 03:59:15;;;;;;;42.65;15.13;;;;;;;-5.75;100.00;60202.50;5074775;28;20196;-75
2022/01/24 04:01:46;;;;;;;32.65;14.00;;;;;;;-4.61;100.00;60327.03;5074005;28;20212;-73
2022/01/24 04:04:13;;;;;;;34.13;15.85;;;;;;;-4.60;100.00;60323.09;5056471;28;20232;-75
2022/01/24 04:06:40;;;;;;;30.17;14.95;;;;;;;-4.85;100.00;60296.78;5074192;28;20204;-75
2022/01/24 04:11:56;;;;;;;25.58;13.25;;;;;;;-5.52;100.00;60229.22;5074178;28;20687;-74
2022/01/24 04:14:53;;;;;;;27.77;11.75;;;;;;;-4.59;100.00;60324.19;5056141;28;20656;-75
2022/01/24 04:17:24;;;;;;;26.90;11.98;;;;;;;-5.96;100.00;60184.88;5074115;28;20254;-75
2022/01/24 04:22:50;;;;;;;26.52;13.05;;;;;;;-4.56;100.00;60327.31;5073875;28;20239;-76
2022/01/24 04:25:22;;;;;;;27.50;12.35;;;;;;;-4.58;100.00;60330.19;5070947;28;20200;-75
2022/01/24 04:27:53;;;;;;;25.20;12.73;;;;;;;-6.22;100.00;60158.56;5073409;28;20279;-73
2022/01/24 04:30:39;;;;;;;24.33;12.65;;;;;;;-4.58;100.00;60330.19;5074017;28;20200;-75
2022/01/24 04:33:10;;;;;;;25.55;12.75;;;;;;;-4.28;100.00;60359.34;5073285;28;20261;-73
2022/01/24 04:35:37;;;;;;;28.75;12.40;;;;;;;-5.80;100.00;60194.25;5055793;28;20233;-74
2022/01/24 04:38:05;;;;;;;26.85;12.20;;;;;;;-4.41;100.00;60348.13;5073431;28;20360;-76
2022/01/24 04:40:34;;;;;;;31.95;14.23;;;;;;;-5.07;100.00;60276.09;5073696;28;20270;-75
2022/01/24 04:43:27;;;;;;;27.55;13.25;;;;;;;-4.84;100.00;60300.31;5073305;28;20223;-74
2022/01/24 04:46:10;;;;;;;24.48;11.35;;;;;;;-5.67;100.00;60210.94;5074003;28;20200;-77
2022/01/24 04:51:36;;;;;;;26.98;11.80;;;;;;;-4.73;100.00;60309.41;5073594;28;20246;-74
2022/01/24 04:56:51;;;;;;;21.77;10.70;;;;;;;-4.92;100.00;60288.84;5065680;28;20683;-75
2022/01/24 04:59:19;;;;;;;27.30;10.60;;;;;;;-5.11;100.00;60268.84;5072831;28;20261;-75
2022/01/24 05:01:48;;;;;;;22.15;11.07;;;;;;;-5.52;100.00;60231.16;5073355;28;20737;-76
2022/01/24 05:04:16;;;;;;;21.08;10.48;;;;;;;-5.21;100.00;60261.84;5072608;28;20231;-73
2022/01/24 05:06:45;;;;;;;20.95;9.95;;;;;;;-6.18;100.00;60167.72;5072819;28;20201;-74
2022/01/24 05:09:17;;;;;;;19.55;10.75;;;;;;;-5.04;100.00;60281.19;5073236;28;20620;-77
2022/01/24 05:11:49;;;;;;;22.95;10.68;;;;;;;-5.15;100.00;60270.13;5073307;28;20774;-75
2022/01/24 05:25:16;;;;;;;25.67;11.50;;;;;;;-5.79;100.00;60205.22;5072931;28;20287;-75
2022/01/24 05:27:44;;;;;;;20.05;10.07;;;;;;;-5.33;100.00;60243.75;5072455;28;20192;-73
2022/01/24 05:30:14;;;;;;;26.67;11.60;;;;;;;-5.18;100.00;60266.97;5072789;28;20204;-73
2022/01/24 05:32:43;;;;;;;26.65;12.45;;;;;;;-5.01;100.00;60282.41;5073025;28;20235;-75
2022/01/24 05:35:11;;;;;;;28.27;12.07;;;;;;;-5.07;100.00;60275.56;5072384;28;20200;-75
2022/01/24 05:37:39;;;;;;;28.40;13.18;;;;;;;-5.31;100.00;60253.28;5072408;28;20192;-75
2022/01/24 05:40:08;;;;;;;40.60;16.70;;;;;;;-5.39;100.00;60244.84;5072338;28;20250;-74
2022/01/24 05:42:37;;;;;;;37.20;15.50;;;;;;;-6.59;100.00;60117.16;5073529;28;20281;-74
2022/01/24 05:45:23;;;;;;;37.35;15.20;;;;;;;-5.02;100.00;60278.84;5056250;28;20204;-74
2022/01/24 05:47:53;;;;;;;26.17;12.55;;;;;;;-4.92;100.00;60291.34;5072765;28;20207;-75
2022/01/24 05:50:20;;;;;;;33.55;14.02;;;;;;;-5.59;100.00;60218.84;5072274;28;20223;-75
2022/01/24 05:52:48;;;;;;;33.22;12.98;;;;;;;-4.90;100.00;60293.44;5072037;28;20206;-76
2022/01/24 05:55:17;;;;;;;31.77;13.70;;;;;;;-4.82;100.00;60299.94;5071968;28;20215;-75
2022/01/24 05:57:44;;;;;;;27.15;11.43;;;;;;;-4.86;100.00;60293.22;5071902;28;20249;-76
2022/01/24 06:00:14;;;;;;;25.58;10.70;;;;;;;-4.92;100.00;60296.31;5072049;28;20232;-76
2022/01/24 06:02:41;;;;;;;20.73;10.27;;;;;;;-4.84;100.00;60299.78;5071355;28;20200;-75
2022/01/24 06:05:10;;;;;;;21.65;10.30;;;;;;;-5.11;100.00;60271.88;5071486;28;20664;-75
2022/01/24 06:07:38;;;;;;;13.70;6.28;;;;;;;-5.33;100.00;60246.22;5071994;28;20200;-75
2022/01/24 06:10:08;;;;;;;9.52;5.07;;;;;;;-4.90;100.00;60286.53;5071896;28;20192;-76
2022/01/24 06:12:36;;;;;;;11.57;5.28;;;;;;;-4.98;100.00;60282.53;5071692;28;20644;-74
2022/01/24 06:15:05;;;;;;;10.63;5.85;;;;;;;-4.86;100.00;60295.19;5071479;28;20334;-73
2022/01/24 06:17:32;;;;;;;16.27;7.47;;;;;;;-4.75;100.00;60309.78;5053797;28;20228;-75
2022/01/24 06:20:00;;;;;;;11.10;6.15;;;;;;;-4.76;100.00;60306.25;5071314;28;20212;-76
2022/01/24 06:22:32;;;;;;;12.55;6.18;;;;;;;-4.65;100.00;60322.28;5071668;28;20196;-74
2022/01/24 06:24:59;;;;;;;20.58;7.05;;;;;;;-4.53;100.00;60330.50;5054028;28;20238;-75
2022/01/24 06:27:27;;;;;;;21.70;8.30;;;;;;;-5.81;100.00;60190.72;5071844;28;20196;-74
2022/01/24 06:29:57;;;;;;;19.13;8.40;;;;;;;-4.34;100.00;60350.53;5071660;28;20697;-76
2022/01/24 06:32:24;;;;;;;14.90;7.57;;;;;;;-4.34;100.00;60350.53;5071652;28;20196;-74
2022/01/24 06:34:52;;;;;;;20.13;9.05;;;;;;;-4.32;100.00;60352.63;5071712;28;20197;-77
2022/01/24 06:37:20;;;;;;;41.10;18.60;;;;;;;-4.08;100.00;60381.84;5070924;28;20732;-75
2022/01/24 06:39:59;;;;;;;32.80;14.97;;;;;;;-4.00;100.00;60387.81;5072305;28;20443;-73
2022/01/24 06:42:30;;;;;;;39.45;17.58;;;;;;;-3.96;100.00;60390.06;5071677;28;20430;-76
2022/01/24 06:44:59;;;;;;;30.23;13.60;;;;;;;-4.81;100.00;60303.47;5071492;28;20718;-76
2022/01/24 06:47:28;;;;;;;25.87;12.27;;;;;;;-3.93;100.00;60392.69;5071672;28;20446;-75
2022/01/24 06:49:55;;;;;;;37.55;18.10;;;;;;;-4.03;100.00;60384.63;5071569;28;20442;-74
2022/01/24 06:52:22;;;;;;;33.72;16.38;;;;;;;-3.71;100.00;60420.88;5072628;28;20262;-73
2022/01/24 06:54:52;;;;;;;33.70;15.93;;;;;;;-3.54;100.00;60438.81;5054593;28;20733;-73
2022/01/24 06:57:19;;;;;;;30.10;13.38;;;;;;;-3.32;100.00;60461.50;5071160;28;20435;-75
2022/01/24 06:59:47;;;;;;;28.10;13.10;;;;;;;-3.47;100.00;60444.25;5071863;28;20254;-73
2022/01/24 07:02:16;;;;;;;22.97;10.40;;;;;;;-3.69;100.00;60418.00;5071361;28;20212;-76
2022/01/24 07:04:45;;;;;;;24.67;10.50;;;;;;;-3.37;100.00;60451.25;5071580;28;20985;-74
2022/01/24 07:07:15;;;;;;;39.10;14.33;;;;;;;-4.45;100.00;60338.94;5071520;28;20258;-77
2022/01/24 07:09:46;;;;;;;51.40;19.40;;;;;;;-3.01;100.00;60494.75;5073261;28;20507;-77
2022/01/24 07:12:16;;;;;;;24.30;9.90;;;;;;;-2.93;100.00;60500.19;5075905;28;20435;-75
2022/01/24 07:14:47;;;;;;;22.63;10.20;;;;;;;-2.72;100.00;60520.41;5057405;28;20438;-76
2022/01/24 07:17:29;;;;;;;15.70;7.90;;;;;;;-4.01;100.00;60389.22;5075649;28;20795;-75
2022/01/24 07:19:57;;;;;;;15.80;8.17;;;;;;;-3.84;100.00;60402.19;5074901;28;20864;-74
2022/01/24 07:22:25;;;;;;;19.37;8.90;;;;;;;-2.38;100.00;60557.75;5074543;28;20461;-74
2022/01/24 07:24:52;;;;;;;20.80;9.35;;;;;;;-2.59;100.00;60536.63;5074305;28;20521;-74
2022/01/24 07:27:22;;;;;;;18.13;8.13;;;;;;;-2.48;100.00;60552.19;5074678;28;20197;-75
2022/01/24 07:29:50;;;;;;;20.53;7.73;;;;;;;-2.37;100.00;60556.34;5075059;28;20434;-72
2022/01/24 07:32:17;;;;;;;15.80;7.87;;;;;;;-2.23;100.00;60576.13;5074928;28;20862;-74
2022/01/24 07:34:46;;;;;;;17.47;8.43;;;;;;;-2.35;100.00;60563.44;5074346;28;20450;-76
2022/01/24 07:37:15;;;;;;;17.70;7.67;;;;;;;-3.12;100.00;60477.66;5074390;28;20443;-75
2022/01/24 07:39:43;;;;;;;17.17;6.90;;;;;;;-2.24;100.00;60575.03;5074273;28;20820;-76
2022/01/24 07:42:17;;;;;;;8.88;5.13;;;;;;;-2.30;100.00;60563.72;5074141;28;20451;-74
2022/01/24 07:44:48;;;;;;;8.87;4.57;;;;;;;-2.47;100.00;60545.78;5074168;28;20671;-76
2022/01/24 07:47:15;;;;;;;18.63;5.63;;;;;;;-2.40;100.00;60555.66;5073808;28;20454;-75
2022/01/24 07:49:45;;;;;;;9.85;5.28;;;;;;;-2.55;100.00;60544.78;5074322;28;21109;-73
2022/01/24 07:52:18;;;;;;;10.73;5.63;;;;;;;-2.73;100.00;60524.34;5074325;28;20242;-75
2022/01/24 07:54:45;;;;;;;11.33;5.10;;;;;;;-2.73;100.00;60521.84;5074244;28;20520;-75
2022/01/24 07:57:15;;;;;;;11.43;5.47;;;;;;;-2.77;100.00;60519.56;5056498;28;20445;-76
2022/01/24 07:59:42;;;;;;;13.43;5.97;;;;;;;-2.60;100.00;60538.06;5073661;28;20452;-75
2022/01/24 08:02:12;;;;;;;11.07;5.17;;;;;;;-2.65;100.00;60532.78;5073948;28;20451;-75
2022/01/24 08:04:39;;;;;;;8.00;4.65;;;;;;;-2.80;100.00;60516.94;5074135;28;20486;-77
2022/01/24 08:07:08;;;;;;;11.13;6.03;;;;;;;-2.87;100.00;60509.53;5073263;28;20234;-75
2022/01/24 08:09:35;;;;;;;8.43;4.90;;;;;;;-2.59;100.00;60539.13;5073752;28;20860;-77
2022/01/24 08:12:03;;;;;;;8.70;4.47;;;;;;;-2.24;100.00;60575.59;5056039;28;20807;-74
2022/01/24 08:14:30;;;;;;;7.47;4.23;;;;;;;-2.11;100.00;60583.81;5073529;28;20499;-74
2022/01/24 08:16:59;;;;;;;10.93;5.17;;;;;;;-2.05;100.00;60592.66;5074441;28;20438;-74
2022/01/24 08:19:33;;;;;;;8.37;4.57;;;;;;;-2.02;100.00;60593.31;5073762;28;20442;-75
2022/01/24 08:22:01;;;;;;;12.40;5.33;;;;;;;-1.92;100.00;60608.88;5074198;28;20454;-74
2022/01/24 08:24:28;;;;;;;10.47;5.13;;;;;;;-3.10;100.00;60484.75;5072977;28;20490;-75
2022/01/24 08:27:00;;;;;;;10.57;5.23;;;;;;;-1.46;100.00;60656.97;5073615;28;21024;-75
2022/01/24 08:29:28;;;;;;;9.07;4.80;;;;;;;-1.64;100.00;60633.47;5055942;28;20439;-76
2022/01/24 08:31:57;;;;;;;9.63;4.50;;;;;;;-1.31;100.00;60667.88;5073956;28;20946;-74
2022/01/24 08:34:31;;;;;;;43.33;10.17;;;;;;;-2.90;100.00;60506.38;5073731;28;20450;-74
2022/01/24 08:37:02;;;;;;;9.33;5.00;;;;;;;-1.44;100.00;60659.63;5073500;28;20439;-74
2022/01/24 08:39:30;;;;;;;8.07;4.50;;;;;;;-1.31;100.00;60673.38;5074188;28;20926;-75
2022/01/24 08:42:12;;;;;;;7.47;4.23;;;;;;;-2.23;100.00;60576.13;5073475;28;20446;-75
2022/01/24 08:47:27;;;;;;;8.50;4.43;;;;;;;-0.05;100.00;60805.72;5073554;28;20434;-74
2022/01/24 08:50:02;;;;;;;6.93;4.17;;;;;;;0.26;100.00;60838.56;5073818;28;20524;-76
2022/01/24 08:52:29;;;;;;;13.53;6.77;;;;;;;0.18;100.00;60829.56;5073427;28;20862;-75
2022/01/24 08:55:07;;;;;;;8.53;4.90;;;;;;;-0.93;100.00;60713.59;5073282;28;20466;-74
2022/01/24 08:57:36;;;;;;;11.53;4.83;;;;;;;-0.09;100.00;60798.97;5073961;28;20507;-75
2022/01/24 09:00:07;;;;;;;19.83;8.00;;;;;;;-1.30;100.00;60674.44;5074460;28;20821;-75
2022/01/24 09:02:35;;;;;;;14.10;7.07;;;;;;;-1.01;100.00;60704.59;5073667;28;20442;-74
2022/01/24 09:05:06;;;;;;;9.57;5.47;;;;;;;-0.17;100.00;60793.00;5072640;28;20573;-76
2022/01/24 09:07:34;;;;;;;12.03;6.47;;;;;;;-2.12;100.00;60578.28;5072844;28;20453;-75
2022/01/24 09:10:05;;;;;;;14.97;8.67;;;;;;;-1.40;100.00;60658.88;5072376;28;20454;-75
2022/01/24 09:12:33;;;;;;;12.20;6.43;;;;;;;-0.40;100.00;60768.66;5072938;28;20438;-75
2022/01/24 09:15:00;;;;;;;10.83;5.33;;;;;;;-1.20;100.00;60685.03;5072233;28;20881;-76
2022/01/24 09:17:27;;;;;;;11.67;5.73;;;;;;;-0.33;100.00;60771.06;5072026;28;20837;-74
2022/01/24 09:19:55;;;;;;;25.70;8.77;;;;;;;-0.51;100.00;60752.00;5072638;28;20446;-75
2022/01/24 09:22:25;;;;;;;15.77;5.80;;;;;;;-0.67;100.00;60740.59;5072498;28;20972;-73
2022/01/24 09:24:53;;;;;;;9.57;4.93;;;;;;;-0.28;100.00;60776.34;5051062;28;20487;-74
2022/01/24 09:27:20;;;;;;;7.70;4.20;;;;;;;-0.05;100.00;60805.72;5052487;28;20439;-75
2022/01/24 09:29:50;;;;;;;7.67;4.73;;;;;;;0.27;100.00;60837.13;5052210;28;20835;-74
2022/01/24 09:32:19;;;;;;;9.47;5.60;;;;;;;-0.43;100.00;60765.47;5052147;28;21026;-74
2022/01/24 09:34:46;;;;;;;10.30;5.47;;;;;;;-1.16;100.00;60689.25;5052513;28;20448;-75
2022/01/24 09:37:14;;;;;;;8.07;4.77;;;;;;;-0.39;100.00;60764.69;5052390;28;20945;-74
2022/01/24 09:39:45;;;;;;;9.67;5.17;;;;;;;0.61;100.00;60870.09;5052318;28;20934;-76
2022/01/24 09:42:12;;;;;;;9.57;5.60;;;;;;;0.59;100.00;60868.53;5052298;28;20789;-76
2022/01/24 09:44:41;;;;;;;12.03;5.27;;;;;;;0.30;100.00;60834.75;5052095;28;20483;-76
2022/01/24 09:47:09;;;;;;;8.50;4.87;;;;;;;0.11;100.00;60822.66;5050932;28;20560;-74
2022/01/24 09:49:37;;;;;;;12.00;5.57;;;;;;;0.13;100.00;60819.78;5052122;28;20435;-75
2022/01/24 09:52:04;;;;;;;10.13;6.10;;;;;;;-0.20;100.00;60790.34;5052394;28;20529;-75
2022/01/24 09:54:34;;;;;;;11.43;6.13;;;;;;;-0.15;100.00;60795.13;5052535;28;20468;-76
2022/01/24 09:57:06;;;;;;;10.63;5.80;;;;;;;-1.76;100.00;60615.81;5050817;28;20471;-74
2022/01/24 09:59:38;;;;;;;7.63;4.47;;;;;;;-1.01;100.00;60702.63;5051980;28;20460;-75
2022/01/24 10:02:06;;;;;;;9.03;4.97;;;;;;;-0.01;100.00;60804.94;5052410;28;20499;-76
2022/01/24 10:04:37;;;;;;;9.37;5.17;;;;;;;-0.16;100.00;60789.56;5051731;28;21002;-75
2022/01/24 10:07:11;;;;;;;13.80;6.20;;;;;;;-0.01;100.00;60807.97;5051930;28;20458;-73
2022/01/24 10:09:43;;;;;;;12.33;6.20;;;;;;;-1.15;100.00;60685.31;5051726;28;20992;-74
2022/01/24 10:17:49;;;;;;;13.33;6.73;;;;;;;-0.38;100.00;60768.25;5052326;28;20435;-76
2022/01/24 10:20:28;;;;;;;9.77;5.47;;;;;;;0.51;100.00;60860.03;5052352;28;20466;-75
2022/01/24 10:23:10;;;;;;;10.03;5.80;;;;;;;0.14;100.00;60818.34;5054618;28;20455;-76
2022/01/24 10:25:59;;;;;;;13.67;6.90;;;;;;;0.05;100.00;60811.31;5072395;28;20482;-77
2022/01/24 10:28:31;;;;;;;12.00;6.27;;;;;;;-0.15;100.00;60790.66;5071805;28;20448;-75
2022/01/24 10:31:28;;;;;;;9.80;5.40;;;;;;;-0.50;100.00;60758.06;5072042;28;20447;-76
2022/01/24 10:34:04;;;;;;;8.17;5.20;;;;;;;-0.78;100.00;60723.94;5072207;28;20478;-78
2022/01/24 10:36:42;;;;;;;10.43;5.67;;;;;;;-1.00;100.00;60701.19;5072070;28;20430;-74
2022/01/24 10:39:21;;;;;;;11.87;5.73;;;;;;;-1.12;100.00;60688.50;5072043;28;20438;-76
2022/01/24 10:42:29;;;;;;;10.63;5.23;;;;;;;-1.06;100.00;60699.84;5071393;28;20465;-74
2022/01/24 10:45:01;;;;;;;8.40;4.83;;;;;;;-1.32;100.00;60667.31;5074890;28;20485;-74
2022/01/24 10:47:30;;;;;;;11.90;5.73;;;;;;;-1.41;100.00;60662.28;5075690;28;20514;-73
2022/01/24 10:49:59;;;;;;;9.77;5.37;;;;;;;-1.25;100.00;60674.75;5075360;28;20446;-74
2022/01/24 10:52:34;;;;;;;12.97;5.27;;;;;;;-1.25;100.00;60677.25;5075284;28;20446;-76
2022/01/24 10:55:13;;;;;;;9.23;4.73;;;;;;;-1.24;100.00;60675.25;5075371;28;20566;-73
2022/01/24 10:57:41;;;;;;;13.00;7.03;;;;;;;-1.52;100.00;60651.16;5076017;28;20442;-75
2022/01/24 11:00:14;;;;;;;11.23;5.83;;;;;;;-1.31;100.00;60673.38;5075240;28;20431;-74
2022/01/24 11:02:43;;;;;;;8.77;5.17;;;;;;;-2.75;100.00;60517.25;5076145;28;20449;-73
2022/01/24 11:05:16;;;;;;;6.30;4.20;;;;;;;-1.52;100.00;60645.63;5075200;28;20486;-74
2022/01/24 11:07:54;;;;;;;10.97;5.30;;;;;;;-1.88;100.00;60608.09;5075039;28;20443;-77
2022/01/24 11:10:36;;;;;;;9.13;4.60;;;;;;;-1.42;100.00;60661.75;5075898;28;20434;-75
2022/01/24 11:13:05;;;;;;;10.53;5.13;;;;;;;-1.11;100.00;60694.56;5075127;28;20458;-76
2022/01/24 11:15:41;;;;;;;11.43;5.37;;;;;;;-0.75;100.00;60729.63;5075018;28;20451;-76
2022/01/24 11:18:16;;;;;;;10.60;5.87;;;;;;;-1.38;100.00;60665.44;5075806;28;20438;-74
2022/01/24 11:20:46;;;;;;;10.00;5.03;;;;;;;-1.76;100.00;60623.28;5057286;28;20481;-75
2022/01/24 11:23:20;;;;;;;10.23;5.20;;;;;;;-0.62;100.00;60745.88;5074524;28;20496;-76
2022/01/24 11:25:51;;;;;;;11.20;5.60;;;;;;;-0.90;100.00;60709.28;5075007;28;20480;-75
2022/01/24 11:28:18;;;;;;;13.33;7.20;;;;;;;1.50;100.00;60964.50;5075113;28;21039;-77
2022/01/24 11:30:53;;;;;;;18.13;7.93;;;;;;;1.72;100.00;60987.31;5075090;28;20952;-76
2022/01/24 11:33:33;;;;;;;18.97;8.80;;;;;;;2.28;100.00;61049.28;5074930;28;20434;-77
2022/01/24 11:36:08;;;;;;;13.97;7.73;;;;;;;1.18;100.00;60935.03;5074557;28;20825;-74
2022/01/24 11:38:39;;;;;;;11.57;6.47;;;;;;;2.19;100.00;61037.22;5074745;28;20510;-74
2022/01/24 11:41:16;;;;;;;10.53;5.87;;;;;;;2.80;100.00;61103.47;5074707;28;20447;-75
2022/01/24 11:43:46;;;;;;;8.43;5.30;;;;;;;2.75;100.00;61095.63;5075182;28;20526;-75
2022/01/24 11:46:37;;;;;;;8.80;5.13;;;;;;;2.65;100.00;61087.53;5074563;28;20516;-75
2022/01/24 11:49:09;;;;;;;7.60;5.00;;;;;;;2.90;100.00;61114.09;5075151;28;20449;-75
2022/01/24 11:51:39;;;;;;;11.00;5.53;;;;;;;3.01;100.00;61123.28;5074841;28;20438;-75
2022/01/24 11:54:42;;;;;;;9.60;5.73;;;;;;;2.43;100.00;61064.69;5074245;28;20959;-74
2022/01/24 11:57:32;;;;;;;9.10;5.07;;;;;;;1.48;100.00;60959.34;5056591;28;20495;-76
2022/01/24 12:00:23;;;;;;;8.67;4.83;;;;;;;-0.37;100.00;60764.31;5074244;28;20502;-78
2022/01/24 12:02:57;;;;;;;7.83;4.50;;;;;;;-0.60;100.00;60743.00;5074639;28;20438;-77
2022/01/24 12:05:28;;;;;;;11.03;5.40;;;;;;;0.89;100.00;60904.81;5074400;28;20473;-77
2022/01/24 12:08:00;;;;;;;9.10;5.17;;;;;;;1.82;100.00;61002.97;5074336;28;20453;-76
2022/01/24 12:10:41;;;;;;;9.77;5.37;;;;;;;1.68;100.00;60986.13;5056843;28;20450;-77
2022/01/24 12:13:14;;;;;;;8.83;4.23;;;;;;;1.66;100.00;60980.97;5074071;28;20898;-77
2022/01/24 12:19:05;;;;;;;8.57;4.47;;;;;;;0.12;100.00;60821.22;5072845;28;20956;-75
2022/01/24 12:21:35;;;;;;;7.67;4.27;;;;;;;-0.59;100.00;60743.53;5073743;28;20504;-75
2022/01/24 12:24:07;;;;;;;8.37;5.00;;;;;;;-1.29;100.00;60670.50;5074027;28;20458;-76
2022/01/24 12:26:48;;;;;;;9.17;4.50;;;;;;;-3.10;100.00;60490.25;5073359;28;20475;-74
2022/01/24 12:29:22;;;;;;;11.53;5.47;;;;;;;-2.23;100.00;60571.13;5073784;28;20549;-75
2022/01/24 12:31:53;;;;;;;9.97;4.80;;;;;;;-4.38;100.00;60351.28;5073882;28;20885;-75
2022/01/24 12:34:50;;;;;;;11.13;4.97;;;;;;;-2.39;100.00;60556.72;5073507;28;20457;-76
2022/01/24 12:37:33;;;;;;;12.20;6.17;;;;;;;-2.26;100.00;60570.44;5072940;28;21035;-75
2022/01/24 12:40:04;;;;;;;16.40;6.83;;;;;;;-2.36;100.00;60562.91;5055705;28;20445;-74
2022/01/24 12:48:12;;;;;;;8.03;4.87;;;;;;;1.88;100.00;61004.31;5074010;28;20445;-73
2022/01/24 12:50:49;;;;;;;11.47;5.13;;;;;;;0.87;100.00;60897.16;5073550;28;20435;-76
2022/01/24 12:53:21;;;;;;;7.80;4.33;;;;;;;0.23;100.00;60832.88;5073498;28;20447;-75
2022/01/24 12:55:58;;;;;;;7.70;4.73;;;;;;;-0.51;100.00;60752.53;5073782;28;20869;-74
2022/01/24 12:58:33;;;;;;;8.83;4.77;;;;;;;-0.69;100.00;60732.94;5073105;28;20924;-76
2022/01/24 13:01:18;;;;;;;14.83;7.37;;;;;;;-1.17;100.00;60687.66;5055362;28;20442;-77
2022/01/24 13:04:02;;;;;;;9.90;5.13;;;;;;;-3.11;100.00;60478.69;5073061;28;20806;-75
2022/01/24 13:06:36;;;;;;;10.63;5.70;;;;;;;-1.92;100.00;60603.88;5054389;28;20486;-77
2022/01/24 13:09:15;;;;;;;17.07;5.80;;;;;;;-3.09;100.00;60493.78;5072866;28;21119;-75